Terminal Aerodrome Forecast
Issued by NWS

Home | Current Version | Previous Version | Text Only | Print | Product List | Glossary On
Versions: 1 2 3 4 5 6 7 8 9 10 11 12 13 14 15 16 17 18 19 20 21
000
FTUS44 KEPZ 190700 AAB
TAFTCS
TAF AMD
KTCS 190744Z 1908/2006 VRB04KT P6SM SCT100
      TEMPO 1908/1912 VRB04KT 1/4SM FG BKN002
     FM191200 30005KT P6SM SCT100 BKN150
     FM191800 35008KT P6SM SCT050 BKN120
     FM200300 33005KT P6SM SCT250=

USA.gov is the U.S. government's official web portal to all federal, state and local government web resources and services.